sensor_id;sensor_type;location;lat;lon;timestamp;P1;durP1;ratioP1;P2;durP2;ratioP2
8312;SDS011;4194;43.408;24.626;2023-02-21T00:00:27;1.20;;;1.10;;
8312;SDS011;4194;43.408;24.626;2023-02-21T00:03:11;1.90;;;1.10;;
8312;SDS011;4194;43.408;24.626;2023-02-21T00:05:55;1.27;;;1.17;;
8312;SDS011;4194;43.408;24.626;2023-02-21T00:08:39;1.10;;;1.00;;
8312;SDS011;4194;43.408;24.626;2023-02-21T00:11:23;1.77;;;1.00;;
8312;SDS011;4194;43.408;24.626;2023-02-21T00:14:08;1.23;;;0.90;;
8312;SDS011;4194;43.408;24.626;2023-02-21T00:16:52;1.10;;;1.00;;
8312;SDS011;4194;43.408;24.626;2023-02-21T00:19:36;1.53;;;1.00;;
8312;SDS011;4194;43.408;24.626;2023-02-21T00:22:20;2.00;;;1.17;;
8312;SDS011;4194;43.408;24.626;2023-02-21T00:25:04;2.80;;;1.20;;
8312;SDS011;4194;43.408;24.626;2023-02-21T00:27:48;0.93;;;0.80;;
8312;SDS011;4194;43.408;24.626;2023-02-21T00:30:32;1.00;;;1.00;;
8312;SDS011;4194;43.408;24.626;2023-02-21T00:33:17;0.97;;;0.83;;
8312;SDS011;4194;43.408;24.626;2023-02-21T00:36:01;2.87;;;1.10;;
8312;SDS011;4194;43.408;24.626;2023-02-21T00:38:45;1.10;;;0.93;;
8312;SDS011;4194;43.408;24.626;2023-02-21T00:41:29;2.73;;;0.90;;
8312;SDS011;4194;43.408;24.626;2023-02-21T00:44:13;2.40;;;1.13;;
8312;SDS011;4194;43.408;24.626;2023-02-21T00:46:58;1.37;;;1.00;;
8312;SDS011;4194;43.408;24.626;2023-02-21T00:49:42;1.60;;;1.10;;
8312;SDS011;4194;43.408;24.626;2023-02-21T00:52:26;1.30;;;0.90;;
8312;SDS011;4194;43.408;24.626;2023-02-21T00:55:11;0.90;;;0.90;;
8312;SDS011;4194;43.408;24.626;2023-02-21T00:57:56;1.67;;;1.10;;
8312;SDS011;4194;43.408;24.626;2023-02-21T01:00:40;1.00;;;0.93;;
8312;SDS011;4194;43.408;24.626;2023-02-21T01:03:24;1.07;;;0.73;;
8312;SDS011;4194;43.408;24.626;2023-02-21T01:06:09;1.40;;;1.03;;
8312;SDS011;4194;43.408;24.626;2023-02-21T01:08:54;1.50;;;0.80;;
8312;SDS011;4194;43.408;24.626;2023-02-21T01:11:38;1.30;;;1.00;;
8312;SDS011;4194;43.408;24.626;2023-02-21T01:14:22;1.50;;;0.70;;
8312;SDS011;4194;43.408;24.626;2023-02-21T01:17:06;0.77;;;0.70;;
8312;SDS011;4194;43.408;24.626;2023-02-21T01:19:51;1.37;;;1.00;;
8312;SDS011;4194;43.408;24.626;2023-02-21T01:22:35;1.20;;;1.10;;
8312;SDS011;4194;43.408;24.626;2023-02-21T01:25:19;1.13;;;0.80;;
8312;SDS011;4194;43.408;24.626;2023-02-21T01:28:03;2.47;;;1.00;;
8312;SDS011;4194;43.408;24.626;2023-02-21T01:30:47;1.10;;;0.90;;
8312;SDS011;4194;43.408;24.626;2023-02-21T01:33:36;0.90;;;0.90;;
8312;SDS011;4194;43.408;24.626;2023-02-21T01:36:21;0.90;;;0.90;;
8312;SDS011;4194;43.408;24.626;2023-02-21T01:39:05;2.27;;;0.90;;
8312;SDS011;4194;43.408;24.626;2023-02-21T01:41:49;2.27;;;0.80;;
8312;SDS011;4194;43.408;24.626;2023-02-21T01:44:38;1.70;;;0.93;;
8312;SDS011;4194;43.408;24.626;2023-02-21T01:47:25;1.43;;;1.03;;
8312;SDS011;4194;43.408;24.626;2023-02-21T01:50:30;1.27;;;0.97;;
8312;SDS011;4194;43.408;24.626;2023-02-21T01:53:21;0.60;;;0.60;;
8312;SDS011;4194;43.408;24.626;2023-02-21T01:56:08;1.40;;;1.10;;
8312;SDS011;4194;43.408;24.626;2023-02-21T01:58:54;0.73;;;0.73;;
8312;SDS011;4194;43.408;24.626;2023-02-21T02:04:28;1.80;;;0.87;;
8312;SDS011;4194;43.408;24.626;2023-02-21T02:07:12;2.13;;;0.80;;
8312;SDS011;4194;43.408;24.626;2023-02-21T02:09:56;0.97;;;0.90;;
8312;SDS011;4194;43.408;24.626;2023-02-21T02:24:29;1.20;;;1.10;;
8312;SDS011;4194;43.408;24.626;2023-02-21T02:26:51;1.53;;;0.93;;
8312;SDS011;4194;43.408;24.626;2023-02-21T02:29:59;1.67;;;1.20;;
8312;SDS011;4194;43.408;24.626;2023-02-21T02:35:45;1.10;;;1.00;;
8312;SDS011;4194;43.408;24.626;2023-02-21T02:41:23;2.77;;;1.07;;
8312;SDS011;4194;43.408;24.626;2023-02-21T02:43:51;1.00;;;0.90;;
8312;SDS011;4194;43.408;24.626;2023-02-21T02:46:23;1.93;;;0.90;;
8312;SDS011;4194;43.408;24.626;2023-02-21T02:48:55;1.30;;;1.20;;
8312;SDS011;4194;43.408;24.626;2023-02-21T02:51:31;3.13;;;1.23;;
8312;SDS011;4194;43.408;24.626;2023-02-21T02:53:58;1.53;;;1.10;;
8312;SDS011;4194;43.408;24.626;2023-02-21T02:56:25;1.30;;;1.10;;
8312;SDS011;4194;43.408;24.626;2023-02-21T02:59:04;1.87;;;1.27;;
8312;SDS011;4194;43.408;24.626;2023-02-21T03:10:34;1.37;;;1.10;;
8312;SDS011;4194;43.408;24.626;2023-02-21T03:13:18;2.27;;;1.13;;
8312;SDS011;4194;43.408;24.626;2023-02-21T03:15:55;1.77;;;1.17;;
8312;SDS011;4194;43.408;24.626;2023-02-21T03:21:08;1.40;;;1.17;;
8312;SDS011;4194;43.408;24.626;2023-02-21T03:23:38;1.40;;;1.10;;
8312;SDS011;4194;43.408;24.626;2023-02-21T03:26:06;1.20;;;1.07;;
8312;SDS011;4194;43.408;24.626;2023-02-21T03:28:33;1.83;;;1.30;;
8312;SDS011;4194;43.408;24.626;2023-02-21T03:31:01;2.40;;;1.70;;
8312;SDS011;4194;43.408;24.626;2023-02-21T03:33:27;1.30;;;1.20;;
8312;SDS011;4194;43.408;24.626;2023-02-21T03:35:53;1.60;;;1.30;;
8312;SDS011;4194;43.408;24.626;2023-02-21T03:38:19;2.67;;;1.17;;
8312;SDS011;4194;43.408;24.626;2023-02-21T03:40:45;2.73;;;1.40;;
8312;SDS011;4194;43.408;24.626;2023-02-21T03:43:11;2.67;;;1.43;;
8312;SDS011;4194;43.408;24.626;2023-02-21T03:45:36;2.10;;;1.30;;
8312;SDS011;4194;43.408;24.626;2023-02-21T03:48:02;1.27;;;1.17;;
8312;SDS011;4194;43.408;24.626;2023-02-21T03:50:28;1.40;;;1.30;;
8312;SDS011;4194;43.408;24.626;2023-02-21T03:52:54;2.63;;;1.60;;
8312;SDS011;4194;43.408;24.626;2023-02-21T03:55:19;1.77;;;1.57;;
8312;SDS011;4194;43.408;24.626;2023-02-21T03:57:45;1.63;;;1.10;;
8312;SDS011;4194;43.408;24.626;2023-02-21T04:00:12;3.10;;;1.10;;
8312;SDS011;4194;43.408;24.626;2023-02-21T04:02:38;1.53;;;1.30;;
8312;SDS011;4194;43.408;24.626;2023-02-21T04:05:04;2.00;;;1.27;;
8312;SDS011;4194;43.408;24.626;2023-02-21T04:07:30;2.20;;;1.03;;
8312;SDS011;4194;43.408;24.626;2023-02-21T04:09:56;2.00;;;1.33;;
8312;SDS011;4194;43.408;24.626;2023-02-21T04:12:22;2.20;;;1.30;;
8312;SDS011;4194;43.408;24.626;2023-02-21T04:14:49;3.93;;;1.10;;
8312;SDS011;4194;43.408;24.626;2023-02-21T04:17:16;1.33;;;1.10;;
8312;SDS011;4194;43.408;24.626;2023-02-21T04:19:42;1.80;;;1.43;;
8312;SDS011;4194;43.408;24.626;2023-02-21T04:22:08;1.60;;;1.33;;
8312;SDS011;4194;43.408;24.626;2023-02-21T04:24:34;2.57;;;1.00;;
8312;SDS011;4194;43.408;24.626;2023-02-21T04:26:59;1.40;;;1.23;;
8312;SDS011;4194;43.408;24.626;2023-02-21T04:29:26;2.60;;;1.40;;
8312;SDS011;4194;43.408;24.626;2023-02-21T04:31:51;3.70;;;1.47;;
8312;SDS011;4194;43.408;24.626;2023-02-21T04:34:19;4.27;;;1.47;;
8312;SDS011;4194;43.408;24.626;2023-02-21T04:36:45;2.27;;;1.57;;
8312;SDS011;4194;43.408;24.626;2023-02-21T04:39:11;1.97;;;1.60;;
8312;SDS011;4194;43.408;24.626;2023-02-21T04:41:37;1.50;;;1.40;;
8312;SDS011;4194;43.408;24.626;2023-02-21T04:44:03;2.17;;;1.70;;
8312;SDS011;4194;43.408;24.626;2023-02-21T04:46:30;1.97;;;1.57;;
8312;SDS011;4194;43.408;24.626;2023-02-21T04:48:56;3.60;;;1.70;;
8312;SDS011;4194;43.408;24.626;2023-02-21T04:51:23;1.93;;;1.40;;
8312;SDS011;4194;43.408;24.626;2023-02-21T04:53:50;2.00;;;1.37;;
8312;SDS011;4194;43.408;24.626;2023-02-21T04:56:17;4.77;;;1.70;;
8312;SDS011;4194;43.408;24.626;2023-02-21T04:58:45;2.13;;;1.80;;
8312;SDS011;4194;43.408;24.626;2023-02-21T05:01:11;3.53;;;1.83;;
8312;SDS011;4194;43.408;24.626;2023-02-21T05:03:37;3.57;;;1.60;;
8312;SDS011;4194;43.408;24.626;2023-02-21T05:06:03;3.33;;;2.07;;
8312;SDS011;4194;43.408;24.626;2023-02-21T05:08:29;2.93;;;1.70;;
8312;SDS011;4194;43.408;24.626;2023-02-21T05:10:54;2.57;;;1.60;;
8312;SDS011;4194;43.408;24.626;2023-02-21T05:13:20;2.60;;;1.70;;
8312;SDS011;4194;43.408;24.626;2023-02-21T05:15:47;1.90;;;1.70;;
8312;SDS011;4194;43.408;24.626;2023-02-21T05:18:13;1.70;;;1.40;;
8312;SDS011;4194;43.408;24.626;2023-02-21T05:20:46;3.33;;;1.93;;
8312;SDS011;4194;43.408;24.626;2023-02-21T05:23:15;2.23;;;1.83;;
8312;SDS011;4194;43.408;24.626;2023-02-21T05:25:42;3.87;;;2.20;;
8312;SDS011;4194;43.408;24.626;2023-02-21T05:28:09;4.57;;;2.00;;
8312;SDS011;4194;43.408;24.626;2023-02-21T05:30:34;2.83;;;1.80;;
8312;SDS011;4194;43.408;24.626;2023-02-21T05:33:00;1.80;;;1.63;;
8312;SDS011;4194;43.408;24.626;2023-02-21T05:35:26;2.23;;;1.50;;
8312;SDS011;4194;43.408;24.626;2023-02-21T05:37:52;3.17;;;1.43;;
8312;SDS011;4194;43.408;24.626;2023-02-21T05:40:17;3.33;;;1.80;;
8312;SDS011;4194;43.408;24.626;2023-02-21T05:42:43;3.87;;;1.73;;
8312;SDS011;4194;43.408;24.626;2023-02-21T05:45:10;2.37;;;1.50;;
8312;SDS011;4194;43.408;24.626;2023-02-21T05:47:36;2.10;;;1.50;;
8312;SDS011;4194;43.408;24.626;2023-02-21T05:50:03;3.50;;;1.30;;
8312;SDS011;4194;43.408;24.626;2023-02-21T05:52:29;2.37;;;1.80;;
8312;SDS011;4194;43.408;24.626;2023-02-21T05:54:54;2.27;;;1.77;;
8312;SDS011;4194;43.408;24.626;2023-02-21T05:57:20;2.60;;;1.90;;
8312;SDS011;4194;43.408;24.626;2023-02-21T05:59:46;4.03;;;1.70;;
8312;SDS011;4194;43.408;24.626;2023-02-21T06:02:13;3.77;;;1.43;;
8312;SDS011;4194;43.408;24.626;2023-02-21T06:04:39;2.43;;;1.70;;
8312;SDS011;4194;43.408;24.626;2023-02-21T06:07:05;4.03;;;1.73;;
8312;SDS011;4194;43.408;24.626;2023-02-21T06:09:30;3.17;;;1.93;;
8312;SDS011;4194;43.408;24.626;2023-02-21T06:11:56;5.37;;;1.83;;
8312;SDS011;4194;43.408;24.626;2023-02-21T06:14:22;2.70;;;1.50;;
8312;SDS011;4194;43.408;24.626;2023-02-21T06:16:48;2.00;;;1.60;;
8312;SDS011;4194;43.408;24.626;2023-02-21T06:19:14;2.73;;;1.33;;
8312;SDS011;4194;43.408;24.626;2023-02-21T06:21:42;1.77;;;1.30;;
8312;SDS011;4194;43.408;24.626;2023-02-21T06:24:08;2.03;;;1.60;;
8312;SDS011;4194;43.408;24.626;2023-02-21T06:26:35;1.77;;;1.40;;
8312;SDS011;4194;43.408;24.626;2023-02-21T06:29:02;1.93;;;1.27;;
8312;SDS011;4194;43.408;24.626;2023-02-21T06:31:29;2.03;;;1.47;;
8312;SDS011;4194;43.408;24.626;2023-02-21T06:33:54;1.83;;;1.47;;
8312;SDS011;4194;43.408;24.626;2023-02-21T06:36:23;3.17;;;1.63;;
8312;SDS011;4194;43.408;24.626;2023-02-21T06:38:51;1.50;;;1.30;;
8312;SDS011;4194;43.408;24.626;2023-02-21T06:41:20;5.77;;;1.60;;
8312;SDS011;4194;43.408;24.626;2023-02-21T06:43:48;3.97;;;1.33;;
8312;SDS011;4194;43.408;24.626;2023-02-21T06:46:19;3.67;;;1.90;;
8312;SDS011;4194;43.408;24.626;2023-02-21T06:48:46;6.80;;;1.80;;
8312;SDS011;4194;43.408;24.626;2023-02-21T06:51:12;4.47;;;1.50;;
8312;SDS011;4194;43.408;24.626;2023-02-21T06:53:39;2.07;;;1.30;;
8312;SDS011;4194;43.408;24.626;2023-02-21T06:56:05;2.87;;;1.50;;
8312;SDS011;4194;43.408;24.626;2023-02-21T06:58:31;2.47;;;1.50;;
8312;SDS011;4194;43.408;24.626;2023-02-21T07:00:57;2.77;;;1.40;;
8312;SDS011;4194;43.408;24.626;2023-02-21T07:03:23;2.97;;;1.73;;
8312;SDS011;4194;43.408;24.626;2023-02-21T07:05:48;2.00;;;1.57;;
8312;SDS011;4194;43.408;24.626;2023-02-21T07:08:14;7.00;;;2.00;;
8312;SDS011;4194;43.408;24.626;2023-02-21T07:10:40;4.17;;;2.40;;
8312;SDS011;4194;43.408;24.626;2023-02-21T07:13:06;2.67;;;1.93;;
8312;SDS011;4194;43.408;24.626;2023-02-21T07:15:31;3.27;;;1.97;;
8312;SDS011;4194;43.408;24.626;2023-02-21T07:17:57;2.27;;;1.53;;
8312;SDS011;4194;43.408;24.626;2023-02-21T07:20:23;2.23;;;1.70;;
8312;SDS011;4194;43.408;24.626;2023-02-21T07:22:49;3.63;;;1.60;;
8312;SDS011;4194;43.408;24.626;2023-02-21T07:25:16;2.63;;;2.20;;
8312;SDS011;4194;43.408;24.626;2023-02-21T07:27:42;4.03;;;1.70;;
8312;SDS011;4194;43.408;24.626;2023-02-21T07:30:09;3.20;;;1.57;;
8312;SDS011;4194;43.408;24.626;2023-02-21T07:32:35;2.73;;;1.43;;
8312;SDS011;4194;43.408;24.626;2023-02-21T07:35:01;3.40;;;1.90;;
8312;SDS011;4194;43.408;24.626;2023-02-21T07:37:27;3.67;;;1.60;;
8312;SDS011;4194;43.408;24.626;2023-02-21T07:39:53;4.77;;;2.13;;
8312;SDS011;4194;43.408;24.626;2023-02-21T07:42:18;6.83;;;2.13;;
8312;SDS011;4194;43.408;24.626;2023-02-21T07:44:44;3.83;;;1.90;;
8312;SDS011;4194;43.408;24.626;2023-02-21T07:47:11;3.47;;;1.70;;
8312;SDS011;4194;43.408;24.626;2023-02-21T07:49:37;6.70;;;2.40;;
8312;SDS011;4194;43.408;24.626;2023-02-21T07:52:04;9.53;;;3.00;;
8312;SDS011;4194;43.408;24.626;2023-02-21T07:54:30;2.13;;;1.30;;
8312;SDS011;4194;43.408;24.626;2023-02-21T07:56:56;4.70;;;2.00;;
8312;SDS011;4194;43.408;24.626;2023-02-21T07:59:22;3.40;;;2.17;;
8312;SDS011;4194;43.408;24.626;2023-02-21T08:01:48;3.73;;;2.83;;
8312;SDS011;4194;43.408;24.626;2023-02-21T08:04:13;4.97;;;2.23;;
8312;SDS011;4194;43.408;24.626;2023-02-21T08:09:35;7.07;;;2.50;;
8312;SDS011;4194;43.408;24.626;2023-02-21T08:12:02;2.33;;;1.80;;
8312;SDS011;4194;43.408;24.626;2023-02-21T08:14:28;4.80;;;2.50;;
8312;SDS011;4194;43.408;24.626;2023-02-21T08:16:54;2.63;;;1.67;;
8312;SDS011;4194;43.408;24.626;2023-02-21T08:19:20;4.87;;;1.53;;
8312;SDS011;4194;43.408;24.626;2023-02-21T08:21:46;7.50;;;2.70;;
8312;SDS011;4194;43.408;24.626;2023-02-21T08:24:13;5.60;;;3.20;;
8312;SDS011;4194;43.408;24.626;2023-02-21T08:26:39;2.93;;;2.40;;
8312;SDS011;4194;43.408;24.626;2023-02-21T08:29:06;2.67;;;1.37;;
8312;SDS011;4194;43.408;24.626;2023-02-21T08:31:36;4.87;;;2.30;;
8312;SDS011;4194;43.408;24.626;2023-02-21T08:34:04;2.93;;;1.50;;
8312;SDS011;4194;43.408;24.626;2023-02-21T08:36:34;3.27;;;1.73;;
8312;SDS011;4194;43.408;24.626;2023-02-21T08:39:01;2.07;;;1.30;;
8312;SDS011;4194;43.408;24.626;2023-02-21T08:41:40;3.33;;;1.50;;
8312;SDS011;4194;43.408;24.626;2023-02-21T08:44:08;4.97;;;1.50;;
8312;SDS011;4194;43.408;24.626;2023-02-21T08:46:35;7.80;;;1.63;;
8312;SDS011;4194;43.408;24.626;2023-02-21T08:49:01;3.60;;;1.90;;
8312;SDS011;4194;43.408;24.626;2023-02-21T08:51:28;4.83;;;1.83;;
8312;SDS011;4194;43.408;24.626;2023-02-21T08:53:55;4.50;;;1.70;;
8312;SDS011;4194;43.408;24.626;2023-02-21T08:56:21;9.10;;;1.70;;
8312;SDS011;4194;43.408;24.626;2023-02-21T08:58:53;2.70;;;1.57;;
8312;SDS011;4194;43.408;24.626;2023-02-21T09:01:19;4.20;;;1.90;;
8312;SDS011;4194;43.408;24.626;2023-02-21T09:03:46;2.73;;;1.20;;
8312;SDS011;4194;43.408;24.626;2023-02-21T09:06:12;4.57;;;1.43;;
8312;SDS011;4194;43.408;24.626;2023-02-21T09:08:38;3.90;;;1.37;;
8312;SDS011;4194;43.408;24.626;2023-02-21T09:11:05;3.27;;;1.60;;
8312;SDS011;4194;43.408;24.626;2023-02-21T09:13:31;9.07;;;1.50;;
8312;SDS011;4194;43.408;24.626;2023-02-21T09:15:58;6.27;;;1.60;;
8312;SDS011;4194;43.408;24.626;2023-02-21T09:18:24;2.20;;;1.43;;
8312;SDS011;4194;43.408;24.626;2023-02-21T09:20:50;3.73;;;1.70;;
8312;SDS011;4194;43.408;24.626;2023-02-21T09:23:22;5.37;;;1.40;;
8312;SDS011;4194;43.408;24.626;2023-02-21T09:25:49;2.80;;;1.20;;
8312;SDS011;4194;43.408;24.626;2023-02-21T09:28:16;4.83;;;1.53;;
8312;SDS011;4194;43.408;24.626;2023-02-21T09:30:42;5.40;;;1.37;;
8312;SDS011;4194;43.408;24.626;2023-02-21T09:33:08;3.07;;;1.17;;
8312;SDS011;4194;43.408;24.626;2023-02-21T09:35:34;5.00;;;1.30;;
8312;SDS011;4194;43.408;24.626;2023-02-21T09:38:01;5.87;;;1.60;;
8312;SDS011;4194;43.408;24.626;2023-02-21T09:40:40;4.37;;;1.60;;
8312;SDS011;4194;43.408;24.626;2023-02-21T09:43:23;4.37;;;1.40;;
8312;SDS011;4194;43.408;24.626;2023-02-21T09:45:56;9.77;;;2.17;;
8312;SDS011;4194;43.408;24.626;2023-02-21T09:48:26;4.90;;;1.70;;
8312;SDS011;4194;43.408;24.626;2023-02-21T09:50:53;10.97;;;2.37;;
8312;SDS011;4194;43.408;24.626;2023-02-21T09:53:29;10.33;;;2.23;;
8312;SDS011;4194;43.408;24.626;2023-02-21T09:55:59;10.23;;;2.70;;
8312;SDS011;4194;43.408;24.626;2023-02-21T09:58:30;4.20;;;2.40;;
8312;SDS011;4194;43.408;24.626;2023-02-21T10:00:57;10.73;;;2.20;;
8312;SDS011;4194;43.408;24.626;2023-02-21T10:08:52;4.57;;;2.20;;
8312;SDS011;4194;43.408;24.626;2023-02-21T10:14:16;7.70;;;2.33;;
8312;SDS011;4194;43.408;24.626;2023-02-21T10:19:33;7.60;;;2.50;;
8312;SDS011;4194;43.408;24.626;2023-02-21T10:22:02;2.67;;;2.17;;
8312;SDS011;4194;43.408;24.626;2023-02-21T10:24:29;5.40;;;1.67;;
8312;SDS011;4194;43.408;24.626;2023-02-21T10:30:16;8.53;;;2.83;;
8312;SDS011;4194;43.408;24.626;2023-02-21T10:32:16;8.80;;;2.20;;
8312;SDS011;4194;43.408;24.626;2023-02-21T10:34:42;4.40;;;1.53;;
8312;SDS011;4194;43.408;24.626;2023-02-21T10:43:02;6.83;;;2.90;;
8312;SDS011;4194;43.408;24.626;2023-02-21T10:45:38;10.53;;;5.07;;
8312;SDS011;4194;43.408;24.626;2023-02-21T10:48:10;5.40;;;3.50;;
8312;SDS011;4194;43.408;24.626;2023-02-21T10:50:42;7.63;;;3.10;;
8312;SDS011;4194;43.408;24.626;2023-02-21T10:58:39;6.37;;;4.47;;
8312;SDS011;4194;43.408;24.626;2023-02-21T11:03:44;8.00;;;2.33;;
8312;SDS011;4194;43.408;24.626;2023-02-21T11:08:57;5.07;;;1.87;;
8312;SDS011;4194;43.408;24.626;2023-02-21T11:11:31;4.43;;;1.90;;
8312;SDS011;4194;43.408;24.626;2023-02-21T11:16:44;5.13;;;1.77;;
8312;SDS011;4194;43.408;24.626;2023-02-21T11:19:12;2.40;;;1.60;;
8312;SDS011;4194;43.408;24.626;2023-02-21T11:21:40;4.43;;;2.13;;
8312;SDS011;4194;43.408;24.626;2023-02-21T11:24:09;5.17;;;1.73;;
8312;SDS011;4194;43.408;24.626;2023-02-21T11:26:46;3.53;;;1.50;;
8312;SDS011;4194;43.408;24.626;2023-02-21T11:29:16;5.47;;;1.63;;
8312;SDS011;4194;43.408;24.626;2023-02-21T11:31:49;6.77;;;2.00;;
8312;SDS011;4194;43.408;24.626;2023-02-21T11:34:16;4.80;;;1.60;;
8312;SDS011;4194;43.408;24.626;2023-02-21T11:36:44;1.97;;;1.30;;
8312;SDS011;4194;43.408;24.626;2023-02-21T11:39:24;1.60;;;1.07;;
8312;SDS011;4194;43.408;24.626;2023-02-21T11:41:57;4.20;;;1.40;;
8312;SDS011;4194;43.408;24.626;2023-02-21T11:49:53;4.10;;;2.03;;
8312;SDS011;4194;43.408;24.626;2023-02-21T11:52:21;2.67;;;1.70;;
8312;SDS011;4194;43.408;24.626;2023-02-21T11:54:49;3.27;;;1.60;;
8312;SDS011;4194;43.408;24.626;2023-02-21T12:13:45;2.10;;;1.37;;
8312;SDS011;4194;43.408;24.626;2023-02-21T12:27:22;3.60;;;1.40;;
8312;SDS011;4194;43.408;24.626;2023-02-21T12:33:12;8.07;;;1.87;;
8312;SDS011;4194;43.408;24.626;2023-02-21T12:36:04;2.03;;;1.60;;
8312;SDS011;4194;43.408;24.626;2023-02-21T12:44:14;6.43;;;1.93;;
8312;SDS011;4194;43.408;24.626;2023-02-21T12:46:57;10.13;;;1.97;;
8312;SDS011;4194;43.408;24.626;2023-02-21T12:52:05;2.63;;;1.13;;
8312;SDS011;4194;43.408;24.626;2023-02-21T12:57:21;4.10;;;1.80;;
8312;SDS011;4194;43.408;24.626;2023-02-21T13:05:39;5.23;;;2.10;;
8312;SDS011;4194;43.408;24.626;2023-02-21T13:08:23;3.63;;;1.60;;
8312;SDS011;4194;43.408;24.626;2023-02-21T13:13:35;4.17;;;1.50;;
8312;SDS011;4194;43.408;24.626;2023-02-21T13:16:03;3.23;;;1.67;;
8312;SDS011;4194;43.408;24.626;2023-02-21T13:18:33;4.73;;;1.33;;
8312;SDS011;4194;43.408;24.626;2023-02-21T13:23:45;1.80;;;1.40;;
8312;SDS011;4194;43.408;24.626;2023-02-21T13:29:01;2.83;;;1.67;;
8312;SDS011;4194;43.408;24.626;2023-02-21T13:31:31;3.73;;;1.27;;
8312;SDS011;4194;43.408;24.626;2023-02-21T13:34:06;3.53;;;1.50;;
8312;SDS011;4194;43.408;24.626;2023-02-21T13:41:50;1.73;;;1.33;;
8312;SDS011;4194;43.408;24.626;2023-02-21T13:44:25;1.87;;;1.37;;
8312;SDS011;4194;43.408;24.626;2023-02-21T13:57:39;2.17;;;1.23;;
8312;SDS011;4194;43.408;24.626;2023-02-21T14:02:59;2.00;;;1.20;;
8312;SDS011;4194;43.408;24.626;2023-02-21T14:18:38;2.67;;;1.27;;
8312;SDS011;4194;43.408;24.626;2023-02-21T14:31:47;2.07;;;1.23;;
8312;SDS011;4194;43.408;24.626;2023-02-21T14:35:19;2.87;;;1.00;;
8312;SDS011;4194;43.408;24.626;2023-02-21T14:37:15;3.63;;;1.23;;
8312;SDS011;4194;43.408;24.626;2023-02-21T14:59:23;1.63;;;1.30;;
8312;SDS011;4194;43.408;24.626;2023-02-21T15:02:29;3.10;;;1.50;;
8312;SDS011;4194;43.408;24.626;2023-02-21T15:08:24;1.60;;;1.47;;
8312;SDS011;4194;43.408;24.626;2023-02-21T15:10:47;3.77;;;2.00;;
8312;SDS011;4194;43.408;24.626;2023-02-21T15:13:19;2.60;;;2.17;;
8312;SDS011;4194;43.408;24.626;2023-02-21T15:15:46;6.27;;;2.57;;
8312;SDS011;4194;43.408;24.626;2023-02-21T15:18:22;3.73;;;2.47;;
8312;SDS011;4194;43.408;24.626;2023-02-21T15:23:34;5.00;;;2.83;;
8312;SDS011;4194;43.408;24.626;2023-02-21T15:28:42;3.80;;;2.60;;
8312;SDS011;4194;43.408;24.626;2023-02-21T15:31:08;5.00;;;2.23;;
8312;SDS011;4194;43.408;24.626;2023-02-21T15:33:37;2.30;;;2.10;;
8312;SDS011;4194;43.408;24.626;2023-02-21T15:41:41;2.93;;;2.20;;
8312;SDS011;4194;43.408;24.626;2023-02-21T15:43:58;2.53;;;2.23;;
8312;SDS011;4194;43.408;24.626;2023-02-21T15:46:30;3.60;;;2.40;;
8312;SDS011;4194;43.408;24.626;2023-02-21T15:49:04;3.53;;;2.20;;
8312;SDS011;4194;43.408;24.626;2023-02-21T15:51:30;3.63;;;2.50;;
8312;SDS011;4194;43.408;24.626;2023-02-21T15:54:07;3.10;;;1.83;;
8312;SDS011;4194;43.408;24.626;2023-02-21T15:56:33;2.53;;;2.00;;
8312;SDS011;4194;43.408;24.626;2023-02-21T15:59:09;3.13;;;2.13;;
8312;SDS011;4194;43.408;24.626;2023-02-21T16:04:49;2.20;;;1.97;;
8312;SDS011;4194;43.408;24.626;2023-02-21T16:07:26;4.33;;;2.17;;
8312;SDS011;4194;43.408;24.626;2023-02-21T16:10:08;4.70;;;1.77;;
8312;SDS011;4194;43.408;24.626;2023-02-21T16:12:37;3.27;;;2.40;;
8312;SDS011;4194;43.408;24.626;2023-02-21T16:15:18;4.50;;;1.80;;
8312;SDS011;4194;43.408;24.626;2023-02-21T16:17:44;4.37;;;2.00;;
8312;SDS011;4194;43.408;24.626;2023-02-21T16:20:17;5.07;;;2.10;;
8312;SDS011;4194;43.408;24.626;2023-02-21T16:22:47;4.80;;;2.13;;
8312;SDS011;4194;43.408;24.626;2023-02-21T16:25:16;3.97;;;2.13;;
8312;SDS011;4194;43.408;24.626;2023-02-21T16:27:48;5.43;;;2.00;;
8312;SDS011;4194;43.408;24.626;2023-02-21T16:30:15;2.07;;;1.87;;
8312;SDS011;4194;43.408;24.626;2023-02-21T16:32:46;5.90;;;2.10;;
8312;SDS011;4194;43.408;24.626;2023-02-21T16:35:17;3.43;;;2.00;;
8312;SDS011;4194;43.408;24.626;2023-02-21T16:37:49;4.70;;;2.07;;
8312;SDS011;4194;43.408;24.626;2023-02-21T16:40:20;6.23;;;2.97;;
8312;SDS011;4194;43.408;24.626;2023-02-21T16:42:52;5.17;;;3.37;;
8312;SDS011;4194;43.408;24.626;2023-02-21T16:45:19;5.60;;;5.00;;
8312;SDS011;4194;43.408;24.626;2023-02-21T16:47:46;5.30;;;3.23;;
8312;SDS011;4194;43.408;24.626;2023-02-21T16:50:18;3.47;;;2.17;;
8312;SDS011;4194;43.408;24.626;2023-02-21T16:52:47;7.87;;;2.63;;
8312;SDS011;4194;43.408;24.626;2023-02-21T16:55:13;10.03;;;2.53;;
8312;SDS011;4194;43.408;24.626;2023-02-21T16:57:41;5.07;;;2.40;;
8312;SDS011;4194;43.408;24.626;2023-02-21T17:00:07;4.53;;;1.97;;
8312;SDS011;4194;43.408;24.626;2023-02-21T17:02:33;5.80;;;2.23;;
8312;SDS011;4194;43.408;24.626;2023-02-21T17:04:59;4.90;;;2.33;;
8312;SDS011;4194;43.408;24.626;2023-02-21T17:07:24;5.53;;;2.20;;
8312;SDS011;4194;43.408;24.626;2023-02-21T17:09:50;3.93;;;2.30;;
8312;SDS011;4194;43.408;24.626;2023-02-21T17:12:16;3.13;;;2.30;;
8312;SDS011;4194;43.408;24.626;2023-02-21T17:14:41;4.80;;;2.47;;
8312;SDS011;4194;43.408;24.626;2023-02-21T17:17:08;5.83;;;2.00;;
8312;SDS011;4194;43.408;24.626;2023-02-21T17:19:34;4.07;;;2.10;;
8312;SDS011;4194;43.408;24.626;2023-02-21T17:22:00;5.23;;;2.60;;
8312;SDS011;4194;43.408;24.626;2023-02-21T17:24:27;6.17;;;2.37;;
8312;SDS011;4194;43.408;24.626;2023-02-21T17:26:52;3.27;;;2.40;;
8312;SDS011;4194;43.408;24.626;2023-02-21T17:29:19;4.13;;;2.53;;
8312;SDS011;4194;43.408;24.626;2023-02-21T17:31:45;7.33;;;2.60;;
8312;SDS011;4194;43.408;24.626;2023-02-21T17:34:12;14.93;;;3.90;;
8312;SDS011;4194;43.408;24.626;2023-02-21T17:36:37;5.37;;;3.27;;
8312;SDS011;4194;43.408;24.626;2023-02-21T17:39:03;6.50;;;3.77;;
8312;SDS011;4194;43.408;24.626;2023-02-21T17:41:30;5.37;;;3.53;;
8312;SDS011;4194;43.408;24.626;2023-02-21T17:43:55;4.73;;;2.83;;
8312;SDS011;4194;43.408;24.626;2023-02-21T17:46:21;6.50;;;3.00;;
8312;SDS011;4194;43.408;24.626;2023-02-21T17:48:47;5.27;;;3.17;;
8312;SDS011;4194;43.408;24.626;2023-02-21T17:51:21;6.23;;;3.60;;
8312;SDS011;4194;43.408;24.626;2023-02-21T17:53:48;4.77;;;3.47;;
8312;SDS011;4194;43.408;24.626;2023-02-21T17:56:16;4.23;;;2.47;;
8312;SDS011;4194;43.408;24.626;2023-02-21T17:58:42;5.97;;;2.60;;
8312;SDS011;4194;43.408;24.626;2023-02-21T18:01:08;3.83;;;2.63;;
8312;SDS011;4194;43.408;24.626;2023-02-21T18:03:34;6.20;;;3.20;;
8312;SDS011;4194;43.408;24.626;2023-02-21T18:05:59;4.53;;;2.90;;
8312;SDS011;4194;43.408;24.626;2023-02-21T18:08:25;11.30;;;3.17;;
8312;SDS011;4194;43.408;24.626;2023-02-21T18:10:51;4.43;;;3.00;;
8312;SDS011;4194;43.408;24.626;2023-02-21T18:13:20;6.40;;;2.97;;
8312;SDS011;4194;43.408;24.626;2023-02-21T18:15:46;6.20;;;3.40;;
8312;SDS011;4194;43.408;24.626;2023-02-21T18:18:12;5.07;;;2.90;;
8312;SDS011;4194;43.408;24.626;2023-02-21T18:20:38;5.83;;;3.27;;
8312;SDS011;4194;43.408;24.626;2023-02-21T18:23:04;5.93;;;3.40;;
8312;SDS011;4194;43.408;24.626;2023-02-21T18:25:30;8.33;;;2.83;;
8312;SDS011;4194;43.408;24.626;2023-02-21T18:27:56;5.33;;;3.23;;
8312;SDS011;4194;43.408;24.626;2023-02-21T18:30:22;6.13;;;3.20;;
8312;SDS011;4194;43.408;24.626;2023-02-21T18:32:48;6.30;;;3.53;;
8312;SDS011;4194;43.408;24.626;2023-02-21T18:35:14;8.13;;;3.30;;
8312;SDS011;4194;43.408;24.626;2023-02-21T18:37:40;6.67;;;4.10;;
8312;SDS011;4194;43.408;24.626;2023-02-21T18:40:07;6.63;;;4.07;;
8312;SDS011;4194;43.408;24.626;2023-02-21T18:42:33;5.63;;;4.07;;
8312;SDS011;4194;43.408;24.626;2023-02-21T18:44:59;7.97;;;4.30;;
8312;SDS011;4194;43.408;24.626;2023-02-21T18:47:25;6.60;;;4.13;;
8312;SDS011;4194;43.408;24.626;2023-02-21T18:49:51;5.50;;;4.00;;